createdAt,value
2022-07-29T00:00:16.727Z,30.91
2022-07-29T00:02:45.409Z,30.93
2022-07-29T00:05:12.709Z,30.94
2022-07-29T00:07:39.969Z,30.75
2022-07-29T00:10:07.528Z,30.58
2022-07-29T00:12:34.768Z,30.53
2022-07-29T00:15:01.990Z,30.37
2022-07-29T00:17:29.212Z,30.34
2022-07-29T00:19:57.847Z,30.24
2022-07-29T00:22:24.949Z,30.27
2022-07-29T00:24:52.092Z,30.18
2022-07-29T00:27:19.488Z,30.06
2022-07-29T00:29:47.047Z,29.93
2022-07-29T00:32:14.248Z,29.85
2022-07-29T00:34:41.508Z,29.81
2022-07-29T00:37:10.284Z,29.75
2022-07-29T00:39:37.450Z,29.77
2022-07-29T00:42:06.070Z,29.80
2022-07-29T00:44:38.769Z,29.74
2022-07-29T00:47:06.387Z,29.69
2022-07-29T00:49:34.867Z,29.67
2022-07-29T00:52:02.506Z,29.62
2022-07-29T00:54:31.192Z,29.56
2022-07-29T00:57:00.304Z,29.49
2022-07-29T00:59:35.214Z,29.44
2022-07-29T01:02:03.397Z,29.48
2022-07-29T01:04:32.153Z,29.51
2022-07-29T01:07:01.868Z,29.47
2022-07-29T01:09:41.995Z,29.52
2022-07-29T01:12:17.848Z,29.57
2022-07-29T01:14:46.793Z,29.55
2022-07-29T01:17:22.048Z,29.58
2022-07-29T01:19:59.268Z,29.61
2022-07-29T01:22:43.696Z,29.62
2022-07-29T01:25:45.031Z,29.62
2022-07-29T01:28:55.008Z,29.65
2022-07-29T01:31:32.259Z,29.63
2022-07-29T01:34:08.426Z,29.61
2022-07-29T01:36:44.264Z,29.64
2022-07-29T01:39:18.048Z,29.55
2022-07-29T01:41:51.908Z,29.55
2022-07-29T01:44:26.965Z,29.51
2022-07-29T01:47:00.014Z,29.46
2022-07-29T01:49:33.209Z,29.50
2022-07-29T01:52:06.710Z,29.45
2022-07-29T01:54:40.788Z,29.45
2022-07-29T01:57:12.308Z,29.47
2022-07-29T01:59:42.051Z,29.49
2022-07-29T02:02:16.727Z,29.43
2022-07-29T02:04:48.084Z,29.48
2022-07-29T02:07:20.526Z,29.47
2022-07-29T02:09:50.648Z,29.49
2022-07-29T02:12:20.786Z,29.51
2022-07-29T02:14:51.512Z,29.46
2022-07-29T02:17:26.247Z,29.34
2022-07-29T02:19:58.267Z,29.37
2022-07-29T02:22:27.948Z,29.32
2022-07-29T02:24:56.626Z,29.36
2022-07-29T02:27:26.209Z,29.30
2022-07-29T02:29:55.667Z,29.34
2022-07-29T02:32:27.347Z,29.34
2022-07-29T02:34:56.966Z,29.35
2022-07-29T02:37:26.049Z,29.34
2022-07-29T02:39:56.058Z,29.32
2022-07-29T02:42:25.426Z,29.32
2022-07-29T02:44:52.710Z,29.32
2022-07-29T02:47:25.350Z,29.25
2022-07-29T02:50:01.117Z,29.27
2022-07-29T02:52:36.067Z,29.28
2022-07-29T02:55:15.386Z,29.31
2022-07-29T02:57:54.971Z,29.27
2022-07-29T03:00:26.526Z,29.25
2022-07-29T03:02:59.045Z,29.30
2022-07-29T03:05:29.288Z,29.36
2022-07-29T03:08:01.347Z,29.29
2022-07-29T03:10:29.448Z,29.32
2022-07-29T03:12:59.221Z,29.27
2022-07-29T03:15:28.092Z,29.29
2022-07-29T03:17:57.827Z,29.24
2022-07-29T03:20:25.504Z,29.26
2022-07-29T03:22:53.669Z,29.34
2022-07-29T03:25:21.669Z,29.42
2022-07-29T03:27:49.805Z,29.43
2022-07-29T03:30:18.378Z,29.32
2022-07-29T03:32:52.148Z,29.31
2022-07-29T03:35:21.587Z,29.27
2022-07-29T03:37:49.144Z,29.18
2022-07-29T03:40:22.945Z,29.22
2022-07-29T03:42:52.970Z,29.22
2022-07-29T03:45:23.104Z,29.10
2022-07-29T03:47:59.947Z,29.11
2022-07-29T03:50:32.019Z,29.08
2022-07-29T03:52:59.689Z,29.11
2022-07-29T03:55:30.446Z,29.01
2022-07-29T03:58:01.114Z,29.00
2022-07-29T04:00:29.771Z,29.01
2022-07-29T04:02:57.615Z,29.00
2022-07-29T04:05:24.770Z,28.95
2022-07-29T04:07:53.346Z,28.95
2022-07-29T04:10:28.294Z,28.98
2022-07-29T04:12:58.724Z,29.00
2022-07-29T04:15:25.973Z,29.06
2022-07-29T04:17:57.932Z,29.11
2022-07-29T04:20:25.445Z,29.07
2022-07-29T04:22:54.026Z,29.05
2022-07-29T04:25:21.252Z,29.02
2022-07-29T04:27:48.467Z,29.09
2022-07-29T04:30:15.526Z,29.09
2022-07-29T04:32:42.611Z,29.06
2022-07-29T04:35:09.828Z,29.02
2022-07-29T04:37:36.947Z,29.11
2022-07-29T04:40:07.351Z,29.10
2022-07-29T04:42:34.487Z,29.11
2022-07-29T04:45:12.286Z,29.04
2022-07-29T04:47:39.426Z,29.00
2022-07-29T04:50:08.845Z,29.05
2022-07-29T04:52:35.986Z,29.09
2022-07-29T04:55:04.267Z,29.24
2022-07-29T04:57:33.165Z,29.22
2022-07-29T05:00:00.279Z,29.20
2022-07-29T05:02:27.523Z,29.19
2022-07-29T05:04:54.806Z,29.29
2022-07-29T05:07:21.925Z,29.40
2022-07-29T05:09:49.126Z,29.30
2022-07-29T05:12:16.286Z,29.19
2022-07-29T05:14:44.807Z,29.06
2022-07-29T05:17:11.965Z,29.03
2022-07-29T05:19:39.784Z,28.99
2022-07-29T05:22:07.408Z,28.93
2022-07-29T05:24:34.626Z,28.82
2022-07-29T05:27:01.886Z,28.80
2022-07-29T05:29:44.321Z,28.81
2022-07-29T05:32:14.546Z,28.89
2022-07-29T05:34:50.955Z,28.89
2022-07-29T05:37:19.606Z,29.04
2022-07-29T05:39:50.398Z,29.09
2022-07-29T05:42:18.072Z,29.17
2022-07-29T05:44:45.287Z,29.13
2022-07-29T05:47:13.906Z,29.08
2022-07-29T05:49:41.027Z,29.22
2022-07-29T05:52:08.546Z,29.30
2022-07-29T05:54:35.763Z,29.26
2022-07-29T05:57:03.086Z,29.34
2022-07-29T05:59:30.712Z,29.07
2022-07-29T06:01:58.392Z,28.92
2022-07-29T06:04:27.352Z,28.79
2022-07-29T06:06:54.566Z,28.89
2022-07-29T06:09:21.665Z,28.99
2022-07-29T06:11:48.866Z,29.03
2022-07-29T06:14:16.334Z,29.06
2022-07-29T06:16:43.824Z,29.08
2022-07-29T06:19:11.027Z,29.14
2022-07-29T06:21:43.147Z,29.27
2022-07-29T06:24:11.366Z,29.32
2022-07-29T06:26:40.004Z,29.60
2022-07-29T06:29:07.945Z,29.67
2022-07-29T06:31:35.506Z,29.65
2022-07-29T06:34:03.467Z,29.67
2022-07-29T06:36:30.766Z,29.79
2022-07-29T06:38:59.336Z,29.86
2022-07-29T06:41:26.465Z,29.88
2022-07-29T06:43:55.275Z,29.80
2022-07-29T06:46:24.341Z,29.43
2022-07-29T06:48:53.218Z,29.29
2022-07-29T06:51:22.348Z,29.35
2022-07-29T06:53:59.476Z,29.37
2022-07-29T06:56:38.613Z,29.31
2022-07-29T06:59:08.112Z,29.39
2022-07-29T07:01:35.987Z,29.38
2022-07-29T07:04:03.287Z,29.61
2022-07-29T07:06:30.465Z,30.11
2022-07-29T07:08:57.647Z,30.26
2022-07-29T07:11:24.748Z,30.35
2022-07-29T07:13:53.263Z,30.54
2022-07-29T07:16:20.409Z,30.24
2022-07-29T07:18:47.627Z,30.30
2022-07-29T07:21:18.727Z,30.23
2022-07-29T07:23:46.907Z,30.22
2022-07-29T07:26:14.125Z,30.22
2022-07-29T07:28:41.324Z,30.16
2022-07-29T07:31:09.985Z,30.25
2022-07-29T07:33:37.106Z,30.50
2022-07-29T07:36:04.629Z,30.79
2022-07-29T07:38:31.848Z,30.89
2022-07-29T07:40:59.067Z,30.94
2022-07-29T07:43:26.146Z,31.16
2022-07-29T07:45:53.433Z,31.42
2022-07-29T07:48:22.109Z,31.61
2022-07-29T07:50:49.229Z,31.54
2022-07-29T07:53:17.266Z,31.27
2022-07-29T07:56:09.283Z,31.29
2022-07-29T07:58:32.068Z,31.19
2022-07-29T08:00:59.327Z,31.08
2022-07-29T08:03:28.006Z,31.07
2022-07-29T08:05:55.228Z,30.81
2022-07-29T08:08:22.629Z,30.77
2022-07-29T08:10:49.769Z,30.68
2022-07-29T08:13:17.113Z,30.58
2022-07-29T08:15:44.285Z,30.70
2022-07-29T08:18:11.789Z,30.65
2022-07-29T08:20:40.904Z,30.77
2022-07-29T08:23:09.925Z,30.74
2022-07-29T08:25:38.738Z,30.59
2022-07-29T08:28:07.605Z,30.64
2022-07-29T08:30:35.667Z,30.55
2022-07-29T08:33:02.885Z,30.46
2022-07-29T08:35:34.903Z,30.41
2022-07-29T08:38:04.308Z,30.41
2022-07-29T08:40:32.486Z,29.86
2022-07-29T08:43:05.446Z,29.87
2022-07-29T08:45:44.791Z,29.97
2022-07-29T08:48:16.809Z,30.06
2022-07-29T08:50:46.589Z,30.02
2022-07-29T08:53:19.354Z,30.04
2022-07-29T08:55:48.429Z,29.92
2022-07-29T08:58:16.314Z,29.87
2022-07-29T09:00:46.573Z,29.70
2022-07-29T09:03:20.168Z,29.59
2022-07-29T09:05:49.028Z,29.63
2022-07-29T09:08:18.469Z,29.60
2022-07-29T09:10:46.307Z,29.86
2022-07-29T09:13:13.549Z,30.00
2022-07-29T09:15:40.628Z,30.06
2022-07-29T09:18:07.847Z,30.12
2022-07-29T09:20:53.525Z,30.09
2022-07-29T09:23:23.398Z,30.11
2022-07-29T09:25:52.009Z,30.13
2022-07-29T09:28:19.567Z,30.07
2022-07-29T09:30:52.508Z,30.08
2022-07-29T09:33:20.147Z,30.04
2022-07-29T09:35:57.070Z,30.02
2022-07-29T09:38:26.027Z,30.04
2022-07-29T09:41:05.514Z,30.08
2022-07-29T09:43:34.846Z,30.13
2022-07-29T09:46:12.459Z,30.04
2022-07-29T09:48:40.402Z,30.10
2022-07-29T09:51:21.376Z,30.17
2022-07-29T09:53:53.084Z,30.21
2022-07-29T09:56:20.945Z,30.25
2022-07-29T09:58:48.068Z,30.30
2022-07-29T10:01:15.968Z,30.27
2022-07-29T10:03:53.330Z,30.28
2022-07-29T10:06:20.808Z,30.24
2022-07-29T10:08:47.992Z,30.26
2022-07-29T10:11:18.466Z,30.23
2022-07-29T10:13:48.046Z,30.24
2022-07-29T10:16:17.554Z,30.32
2022-07-29T10:18:45.849Z,30.31
2022-07-29T10:21:34.989Z,30.32
2022-07-29T10:24:02.850Z,30.13
2022-07-29T10:26:32.147Z,29.74
2022-07-29T10:28:59.327Z,29.86
2022-07-29T10:31:37.986Z,29.80
2022-07-29T10:34:16.786Z,29.82
2022-07-29T10:37:03.029Z,29.58
2022-07-29T10:39:49.874Z,29.83
2022-07-29T10:42:34.326Z,29.92
2022-07-29T10:45:04.887Z,29.94
2022-07-29T10:47:32.616Z,30.04
2022-07-29T10:50:05.186Z,29.93
2022-07-29T10:52:55.428Z,29.93
2022-07-29T10:55:33.526Z,29.86
2022-07-29T10:58:18.078Z,29.45
2022-07-29T11:00:47.871Z,29.66
2022-07-29T11:07:03.899Z,29.73
2022-07-29T11:09:37.643Z,29.75
2022-07-29T11:12:44.585Z,29.68
2022-07-29T11:15:15.308Z,29.61
2022-07-29T11:18:07.065Z,29.62
2022-07-29T11:20:40.706Z,29.54
2022-07-29T11:23:22.369Z,29.48
2022-07-29T11:26:19.376Z,29.33
2022-07-29T11:28:58.745Z,29.12
2022-07-29T11:31:48.866Z,29.02
2022-07-29T11:34:21.825Z,28.96
2022-07-29T11:37:28.049Z,28.82
2022-07-29T11:40:17.346Z,28.54
2022-07-29T11:42:52.085Z,28.50
2022-07-29T11:45:44.411Z,28.51
2022-07-29T11:48:29.542Z,28.48
2022-07-29T11:51:00.471Z,28.47
2022-07-29T11:53:28.811Z,28.81
2022-07-29T11:56:01.128Z,28.89
2022-07-29T11:58:30.385Z,28.94
2022-07-29T12:00:58.309Z,28.85
2022-07-29T12:03:36.342Z,28.91
2022-07-29T12:06:12.168Z,28.97
2022-07-29T12:08:42.970Z,28.99
2022-07-29T12:11:17.466Z,28.98
2022-07-29T12:13:49.430Z,29.05
2022-07-29T12:16:25.318Z,29.03
2022-07-29T12:18:59.823Z,29.03
2022-07-29T12:21:28.902Z,29.05
2022-07-29T12:24:01.835Z,29.10
2022-07-29T12:26:35.728Z,29.19
2022-07-29T12:29:03.586Z,29.17
2022-07-29T12:31:43.427Z,29.22
2022-07-29T12:34:16.148Z,29.23
2022-07-29T12:36:44.486Z,29.29
2022-07-29T12:39:12.770Z,29.24
2022-07-29T12:41:40.467Z,29.19
2022-07-29T12:44:07.609Z,29.20
2022-07-29T12:46:34.924Z,29.19
2022-07-29T12:49:04.063Z,29.15
2022-07-29T12:51:34.887Z,29.16
2022-07-29T12:54:08.167Z,29.23
2022-07-29T12:56:44.027Z,29.23
2022-07-29T12:59:19.027Z,29.13
2022-07-29T13:01:47.267Z,29.10
2022-07-29T13:04:26.169Z,29.19
2022-07-29T13:07:01.747Z,29.15
2022-07-29T13:09:39.176Z,29.11
2022-07-29T13:12:09.518Z,28.99
2022-07-29T13:14:38.229Z,28.95
2022-07-29T13:17:08.568Z,28.95
2022-07-29T13:19:38.647Z,29.05
2022-07-29T13:22:08.397Z,29.08
2022-07-29T13:24:45.989Z,29.12
2022-07-29T13:27:14.428Z,29.13
2022-07-29T13:29:41.549Z,29.04
2022-07-29T13:32:08.709Z,29.05
2022-07-29T13:34:35.827Z,29.10
2022-07-29T13:37:02.929Z,29.18
2022-07-29T13:39:31.493Z,29.21
2022-07-29T13:41:59.507Z,29.22
2022-07-29T13:44:27.547Z,29.33
2022-07-29T13:46:54.677Z,29.34
2022-07-29T13:49:21.941Z,29.30
2022-07-29T13:51:50.208Z,29.35
2022-07-29T13:54:17.549Z,29.32
2022-07-29T13:56:46.887Z,29.29
2022-07-29T13:59:14.295Z,29.29
2022-07-29T14:01:41.492Z,29.38
2022-07-29T14:04:09.785Z,29.38
2022-07-29T14:06:40.565Z,29.48
2022-07-29T14:09:08.816Z,29.48
2022-07-29T14:11:36.112Z,28.79
2022-07-29T14:14:04.729Z,29.36
2022-07-29T14:16:32.279Z,29.66
2022-07-29T14:18:59.486Z,29.63
2022-07-29T14:21:26.849Z,29.22
2022-07-29T14:23:54.029Z,29.40
2022-07-29T14:26:24.211Z,29.71
2022-07-29T14:28:51.730Z,29.40
2022-07-29T14:31:20.549Z,29.70
2022-07-29T14:33:49.365Z,29.70
2022-07-29T14:36:17.149Z,29.85
2022-07-29T14:38:44.289Z,29.93
2022-07-29T14:41:11.526Z,29.09
2022-07-29T14:43:38.731Z,29.49
2022-07-29T14:46:08.476Z,29.71
2022-07-29T14:48:37.344Z,29.12
2022-07-29T14:51:05.238Z,28.55
2022-07-29T14:53:32.925Z,28.87
2022-07-29T14:56:10.349Z,28.75
2022-07-29T14:58:51.752Z,29.34
2022-07-29T15:01:19.591Z,29.41
2022-07-29T15:03:48.169Z,29.59
2022-07-29T15:06:15.369Z,29.20
2022-07-29T15:08:42.525Z,29.19
2022-07-29T15:11:09.729Z,29.46
2022-07-29T15:13:36.886Z,29.59
2022-07-29T15:16:06.150Z,29.12
2022-07-29T15:18:33.566Z,29.46
2022-07-29T15:21:02.206Z,29.29
2022-07-29T15:23:29.365Z,29.56
2022-07-29T15:25:56.766Z,29.52
2022-07-29T15:28:23.907Z,29.57
2022-07-29T15:30:51.064Z,29.56
2022-07-29T15:33:18.186Z,29.52
2022-07-29T15:35:45.371Z,29.63
2022-07-29T15:38:13.926Z,29.44
2022-07-29T15:40:41.085Z,29.50
2022-07-29T15:43:08.907Z,29.48
2022-07-29T15:45:40.195Z,29.22
2022-07-29T15:48:09.706Z,29.16
2022-07-29T15:50:41.965Z,29.02
2022-07-29T15:53:09.066Z,28.87
2022-07-29T15:55:37.645Z,28.85
2022-07-29T15:58:04.766Z,28.56
2022-07-29T16:00:31.869Z,28.77
2022-07-29T16:02:58.971Z,28.61
2022-07-29T16:05:26.131Z,28.73
2022-07-29T16:07:53.279Z,28.46
2022-07-29T16:10:20.485Z,28.44
2022-07-29T16:12:49.067Z,28.57
2022-07-29T16:15:16.243Z,28.61
2022-07-29T16:17:43.505Z,28.58
2022-07-29T16:20:11.467Z,28.32
2022-07-29T16:22:41.126Z,28.39
2022-07-29T16:25:09.626Z,28.44
2022-07-29T16:27:38.144Z,28.21
2022-07-29T16:30:08.706Z,28.26
2022-07-29T16:32:35.992Z,28.43
2022-07-29T16:35:03.206Z,28.33
2022-07-29T16:37:30.351Z,28.48
2022-07-29T16:39:57.526Z,28.26
2022-07-29T16:42:44.324Z,28.14
2022-07-29T16:45:14.124Z,28.37
2022-07-29T16:47:41.286Z,28.47
2022-07-29T16:50:09.486Z,28.58
2022-07-29T16:52:36.668Z,28.64
2022-07-29T16:55:04.753Z,28.63
2022-07-29T16:57:31.948Z,28.62
2022-07-29T16:59:59.172Z,28.58
2022-07-29T17:02:27.958Z,28.60
2022-07-29T17:04:55.147Z,28.61
2022-07-29T17:07:22.307Z,28.58
2022-07-29T17:09:53.834Z,28.61
2022-07-29T17:12:22.667Z,28.64
2022-07-29T17:14:49.847Z,28.67
2022-07-29T17:17:20.923Z,28.67
2022-07-29T17:20:07.466Z,28.74
2022-07-29T17:22:34.594Z,28.76
2022-07-29T17:25:01.782Z,28.79
2022-07-29T17:27:29.007Z,28.85
2022-07-29T17:29:56.195Z,28.82
2022-07-29T17:32:23.327Z,28.86
2022-07-29T17:34:50.587Z,28.93
2022-07-29T17:37:19.175Z,28.98
2022-07-29T17:39:46.268Z,29.05
2022-07-29T17:42:14.488Z,29.06
2022-07-29T17:44:42.048Z,29.11
2022-07-29T17:47:10.707Z,29.18
2022-07-29T17:49:43.935Z,29.17
2022-07-29T17:52:12.085Z,29.21
2022-07-29T17:54:40.948Z,29.19
2022-07-29T17:57:08.126Z,29.15
2022-07-29T17:59:35.246Z,29.17
2022-07-29T18:02:02.452Z,29.12
2022-07-29T18:04:29.748Z,29.17
2022-07-29T18:06:57.225Z,29.12
2022-07-29T18:09:24.588Z,29.12
2022-07-29T18:11:53.204Z,29.11
2022-07-29T18:14:20.448Z,29.11
2022-07-29T18:16:47.722Z,29.15
2022-07-29T18:19:14.896Z,29.14
2022-07-29T18:21:51.288Z,29.13
2022-07-29T18:24:22.988Z,29.11
2022-07-29T18:26:50.210Z,29.09
2022-07-29T18:29:18.890Z,29.09
2022-07-29T18:31:46.139Z,29.03
2022-07-29T18:34:13.387Z,29.00
2022-07-29T18:36:40.607Z,28.98
2022-07-29T18:39:07.766Z,28.97
2022-07-29T18:41:36.185Z,28.91
2022-07-29T18:44:19.644Z,28.90
2022-07-29T18:46:49.692Z,28.89
2022-07-29T18:49:16.853Z,28.88
2022-07-29T18:51:44.166Z,28.91
2022-07-29T18:54:11.368Z,28.91
2022-07-29T18:56:38.584Z,28.84
2022-07-29T18:59:05.846Z,28.83
2022-07-29T19:01:34.545Z,28.77
2022-07-29T19:04:01.787Z,28.69
2022-07-29T19:06:29.007Z,28.62
2022-07-29T19:08:56.249Z,28.64
2022-07-29T19:11:23.832Z,28.61
2022-07-29T19:13:51.006Z,28.58
2022-07-29T19:16:18.403Z,28.57
2022-07-29T19:18:47.049Z,28.47
2022-07-29T19:21:14.325Z,28.49
2022-07-29T19:24:01.791Z,28.46
2022-07-29T19:26:29.944Z,28.50
2022-07-29T19:28:57.088Z,28.45
2022-07-29T19:31:24.351Z,28.40
2022-07-29T19:33:53.027Z,28.41
2022-07-29T19:36:20.207Z,28.33
2022-07-29T19:38:47.257Z,28.26
2022-07-29T19:41:14.388Z,28.21
2022-07-29T19:43:52.093Z,28.17
2022-07-29T19:46:20.176Z,28.26
2022-07-29T19:48:47.907Z,28.53
2022-07-29T19:51:16.984Z,28.75
2022-07-29T19:53:44.156Z,28.97
2022-07-29T19:56:11.327Z,29.17
2022-07-29T19:58:38.407Z,29.31
2022-07-29T20:01:10.415Z,29.43
2022-07-29T20:03:38.167Z,29.50
2022-07-29T20:06:05.547Z,29.22
2022-07-29T20:08:34.167Z,28.92
2022-07-29T20:11:01.446Z,28.61
2022-07-29T20:13:28.566Z,28.44
2022-07-29T20:15:55.767Z,28.35
2022-07-29T20:18:23.005Z,28.22
2022-07-29T20:20:50.127Z,28.17
2022-07-29T20:23:17.526Z,27.99
2022-07-29T20:25:46.069Z,27.95
2022-07-29T20:28:13.227Z,27.88
2022-07-29T20:30:40.534Z,27.80
2022-07-29T20:33:07.847Z,27.76
2022-07-29T20:35:35.206Z,27.73
2022-07-29T20:38:02.328Z,27.69
2022-07-29T20:40:29.528Z,27.66
2022-07-29T20:42:58.106Z,27.62
2022-07-29T20:45:25.738Z,27.53
2022-07-29T20:47:53.470Z,27.56
2022-07-29T20:50:20.807Z,27.65
2022-07-29T20:52:51.830Z,27.61
2022-07-29T20:55:19.007Z,27.57
2022-07-29T20:57:46.106Z,27.52
2022-07-29T21:00:15.529Z,27.46
2022-07-29T21:02:42.726Z,27.43
2022-07-29T21:05:10.585Z,27.44
2022-07-29T21:07:37.729Z,27.40
2022-07-29T21:10:06.087Z,27.43
2022-07-29T21:12:33.226Z,27.39
2022-07-29T21:15:00.429Z,27.43
2022-07-29T21:17:28.967Z,27.43
2022-07-29T21:19:56.046Z,27.45
2022-07-29T21:22:23.209Z,27.47
2022-07-29T21:24:50.484Z,27.39
2022-07-29T21:27:21.333Z,27.38
2022-07-29T21:29:49.217Z,27.39
2022-07-29T21:32:27.432Z,27.43
2022-07-29T21:34:59.034Z,27.41
2022-07-29T21:37:29.311Z,27.39
2022-07-29T21:39:56.909Z,27.44
2022-07-29T21:42:24.473Z,27.49
2022-07-29T21:44:52.046Z,27.55
2022-07-29T21:47:19.166Z,27.60
2022-07-29T21:49:46.305Z,27.51
2022-07-29T21:52:15.206Z,27.42
2022-07-29T21:54:45.367Z,27.39
2022-07-29T21:57:12.547Z,27.40
2022-07-29T21:59:39.687Z,27.39
2022-07-29T22:02:06.848Z,27.37
2022-07-29T22:04:35.174Z,27.33
2022-07-29T22:07:02.995Z,27.32
2022-07-29T22:09:31.778Z,27.29
2022-07-29T22:11:58.968Z,27.23
2022-07-29T22:14:26.126Z,27.22
2022-07-29T22:16:53.304Z,27.20
2022-07-29T22:19:27.607Z,27.15
2022-07-29T22:21:56.190Z,27.14
2022-07-29T22:24:23.307Z,27.10
2022-07-29T22:26:53.508Z,27.07
2022-07-29T22:29:20.700Z,26.99
2022-07-29T22:31:47.847Z,27.00
2022-07-29T22:34:15.568Z,26.97
2022-07-29T22:36:42.668Z,26.97
2022-07-29T22:39:09.767Z,26.96
2022-07-29T22:41:36.929Z,26.97
2022-07-29T22:44:05.688Z,26.97
2022-07-29T22:46:33.506Z,26.96
2022-07-29T22:49:00.860Z,26.94
2022-07-29T22:51:28.168Z,26.93
2022-07-29T22:53:55.286Z,26.95
2022-07-29T22:56:22.466Z,26.93
2022-07-29T22:58:49.713Z,26.95
2022-07-29T23:01:37.836Z,26.93
2022-07-29T23:04:05.893Z,26.94
2022-07-29T23:06:33.267Z,26.94
2022-07-29T23:09:00.410Z,26.92
2022-07-29T23:11:27.566Z,26.91
2022-07-29T23:13:54.687Z,26.92
2022-07-29T23:16:26.262Z,26.95
2022-07-29T23:18:54.107Z,27.00
2022-07-29T23:21:21.369Z,27.03
2022-07-29T23:23:49.069Z,27.01
2022-07-29T23:26:16.552Z,27.03
2022-07-29T23:28:44.446Z,27.03
2022-07-29T23:31:11.642Z,27.04
2022-07-29T23:33:40.286Z,27.06
2022-07-29T23:36:07.729Z,27.04
2022-07-29T23:38:34.827Z,27.01
2022-07-29T23:41:02.948Z,27.03
2022-07-29T23:43:30.165Z,27.04
2022-07-29T23:45:58.092Z,27.03
2022-07-29T23:48:25.507Z,26.99
2022-07-29T23:50:54.105Z,26.93
2022-07-29T23:53:21.285Z,26.90
2022-07-29T23:55:48.525Z,26.88
2022-07-29T23:58:15.604Z,26.86
